Time;durP1;ratioP1;P1;durP2;ratioP2;P2;SDS_P1;SDS_P2;PMS_P1;PMS_P2;Temp;Humidity;BMP_temperature;BMP_pressure;BME280_temperature;BME280_humidity;BME280_pressure;Samples;Min_cycle;Max_cycle;Signal;HPM_P1;HPM_P2
2023/09/21 00:00:45;;;;;;;6.95;4.88;;;;;;;19.54;77.35;100450.47;5032109;28;20302;-72
2023/09/21 00:03:14;;;;;;;10.98;4.82;;;;;;;20.12;76.90;100563.97;5031963;28;20028;-72
2023/09/21 00:05:40;;;;;;;8.88;5.40;;;;;;;20.26;77.75;100595.44;5032067;28;20025;-72
2023/09/21 00:08:06;;;;;;;9.00;4.57;;;;;;;20.36;78.95;100599.78;5031916;28;20393;-72
2023/09/21 00:10:33;;;;;;;7.05;4.95;;;;;;;20.25;80.56;100585.81;5031167;28;20104;-70
2023/09/21 00:12:59;;;;;;;10.05;5.28;;;;;;;20.10;82.18;100601.53;5032246;28;20030;-75
2023/09/21 00:15:29;;;;;;;7.82;5.40;;;;;;;19.96;83.10;100599.81;5026333;28;20144;-71
2023/09/21 00:17:56;;;;;;;10.55;5.53;;;;;;;19.72;84.75;100584.91;5031819;28;20112;-72
2023/09/21 00:20:35;;;;;;;7.63;5.10;;;;;;;19.70;84.90;100598.00;5031626;28;20033;-73
2023/09/21 00:23:04;;;;;;;8.48;4.95;;;;;;;19.60;85.65;100601.50;5031462;28;20112;-72
2023/09/21 00:25:30;;;;;;;7.47;5.67;;;;;;;19.21;84.57;100514.13;5031158;28;20529;-71
2023/09/21 00:27:56;;;;;;;8.57;5.35;;;;;;;19.37;83.40;100544.69;5031352;28;20260;-72
2023/09/21 00:30:21;;;;;;;8.32;5.38;;;;;;;19.43;84.36;100595.31;5031768;28;20021;-73
2023/09/21 00:32:47;;;;;;;8.30;4.93;;;;;;;18.87;84.28;100520.13;5031256;28;20496;-71
2023/09/21 00:35:15;;;;;;;9.40;5.40;;;;;;;19.31;83.95;100596.19;5031334;28;20042;-71
2023/09/21 00:37:40;;;;;;;7.40;5.30;;;;;;;19.25;84.23;100604.88;5032201;28;20036;-71
2023/09/21 00:40:18;;;;;;;7.68;5.25;;;;;;;19.11;84.41;100611.81;5031979;28;20041;-72
2023/09/21 00:42:46;;;;;;;9.02;5.00;;;;;;;18.83;84.45;100578.53;5031928;28;20112;-71
2023/09/21 00:45:14;;;;;;;8.27;4.80;;;;;;;19.11;84.32;100615.28;5032020;28;20026;-72
2023/09/21 00:47:44;;;;;;;6.75;4.88;;;;;;;19.27;83.41;100611.00;5030539;28;20398;-72
2023/09/21 00:50:11;;;;;;;6.72;4.93;;;;;;;19.51;82.30;100606.69;5032093;28;20061;-71
2023/09/21 00:52:40;;;;;;;9.35;4.75;;;;;;;19.12;81.39;100527.22;5031742;28;20033;-71
2023/09/21 00:55:10;;;;;;;7.65;4.90;;;;;;;19.43;81.47;100583.13;5031892;28;20025;-74
2023/09/21 00:57:36;;;;;;;8.82;5.10;;;;;;;19.40;82.56;100581.38;5032297;28;20029;-71
2023/09/21 01:00:10;;;;;;;7.35;4.55;;;;;;;19.55;83.95;100587.50;5032054;28;20044;-75
2023/09/21 01:02:36;;;;;;;8.13;5.32;;;;;;;19.56;85.30;100590.13;5031544;28;20100;-71
2023/09/21 01:05:14;;;;;;;11.23;5.32;;;;;;;19.60;85.84;100588.41;5046825;28;20488;-77
2023/09/21 01:07:42;;;;;;;8.40;5.97;;;;;;;19.71;85.71;100585.78;5031530;28;20030;-70
2023/09/21 01:10:13;;;;;;;7.95;5.28;;;;;;;19.88;85.51;100581.47;5031599;28;20119;-74
2023/09/21 01:12:40;;;;;;;12.07;5.45;;;;;;;20.01;85.09;100578.84;5031312;28;20496;-76
2023/09/21 01:15:11;;;;;;;12.40;5.65;;;;;;;19.94;85.81;100574.47;5031335;28;20056;-75
2023/09/21 01:17:44;;;;;;;10.98;6.65;;;;;;;19.68;87.38;100580.56;5031475;28;20077;-72
2023/09/21 01:20:28;;;;;;;13.90;6.85;;;;;;;19.07;87.95;100496.66;5031055;28;20504;-71
2023/09/21 01:23:08;;;;;;;13.60;6.60;;;;;;;19.60;87.89;100574.41;5031330;28;20114;-71
2023/09/21 01:25:41;;;;;;;11.10;6.88;;;;;;;19.72;88.04;100582.28;5030681;28;20519;-70
2023/09/21 01:28:09;;;;;;;12.40;7.38;;;;;;;19.77;86.78;100585.78;5031327;28;20025;-72
2023/09/21 01:30:41;;;;;;;11.68;7.03;;;;;;;19.77;85.71;100566.59;5030979;28;20033;-70
2023/09/21 01:33:08;;;;;;;9.88;6.55;;;;;;;19.90;85.04;100572.72;5030975;28;20052;-71
2023/09/21 01:35:43;;;;;;;17.27;6.97;;;;;;;19.92;85.33;100578.84;5030450;28;20060;-71
2023/09/21 01:38:09;;;;;;;13.02;7.50;;;;;;;19.69;86.40;100579.69;5031123;28;20038;-72
2023/09/21 01:40:35;;;;;;;15.13;6.95;;;;;;;19.63;86.80;100580.53;5030964;28;20524;-70
2023/09/21 01:43:08;;;;;;;10.50;6.50;;;;;;;19.54;86.95;100565.69;5030841;28;20021;-71
2023/09/21 01:45:40;;;;;;;7.90;5.38;;;;;;;18.62;86.26;100445.94;5030742;28;20481;-70
2023/09/21 01:48:10;;;;;;;11.63;6.85;;;;;;;19.22;86.71;100579.56;5030780;28;20033;-73
2023/09/21 01:50:40;;;;;;;8.52;5.72;;;;;;;19.04;87.40;100584.72;5030787;28;20026;-71
2023/09/21 01:53:09;;;;;;;9.95;6.25;;;;;;;18.92;87.92;100570.72;5030659;28;20064;-71
2023/09/21 01:55:35;;;;;;;8.35;5.93;;;;;;;18.80;87.52;100554.09;5030482;28;20033;-70
2023/09/21 01:58:01;;;;;;;7.85;5.55;;;;;;;18.85;86.56;100570.69;5030724;28;20095;-71
2023/09/21 02:00:28;;;;;;;9.60;5.50;;;;;;;18.54;86.80;100555.72;5030292;28;20469;-70
2023/09/21 02:02:55;;;;;;;9.23;5.20;;;;;;;18.71;86.66;100575.84;5030282;28;20030;-71
2023/09/21 02:05:21;;;;;;;10.73;5.65;;;;;;;18.73;85.91;100572.38;5011346;28;20045;-71
2023/09/21 02:07:47;;;;;;;7.53;5.30;;;;;;;18.73;85.35;100558.44;5029584;28;20034;-71
2023/09/21 02:10:17;;;;;;;10.63;5.80;;;;;;;18.64;85.27;100548.81;5030666;28;20083;-72
2023/09/21 02:12:55;;;;;;;8.60;5.60;;;;;;;18.67;84.83;100558.41;5030322;28;20033;-71
2023/09/21 02:15:21;;;;;;;13.02;6.22;;;;;;;18.78;84.08;100569.78;5030057;28;20132;-76
2023/09/21 02:17:47;;;;;;;9.55;5.80;;;;;;;18.90;84.11;100574.19;5030375;28;20112;-71
2023/09/21 02:20:16;;;;;;;16.83;6.35;;;;;;;18.75;84.39;100569.75;5030152;28;20485;-71
2023/09/21 02:22:46;;;;;;;11.75;5.75;;;;;;;18.84;84.79;100575.03;5030214;28;20037;-70
2023/09/21 02:25:11;;;;;;;;;;;;;;;18.98;84.42;100571.63;5030389;28;20030;-71
2023/09/21 02:27:38;;;;;;;9.38;5.32;;;;;;;18.99;81.13;100579.50;5030317;28;19948;-71
2023/09/21 02:30:09;;;;;;;14.70;5.20;;;;;;;19.06;81.04;100575.16;5029967;28;20044;-76
2023/09/21 02:32:34;;;;;;;8.70;5.00;;;;;;;19.16;81.35;100576.94;5029889;28;20424;-71
2023/09/21 02:35:07;;;;;;;9.05;5.30;;;;;;;19.04;82.04;100569.94;5030354;28;20056;-72
2023/09/21 02:37:35;;;;;;;8.35;5.40;;;;;;;18.23;83.54;100508.50;5029806;28;20124;-72
2023/09/21 02:40:00;;;;;;;9.43;6.28;;;;;;;18.42;85.36;100580.03;5030291;28;20030;-70
2023/09/21 02:42:26;;;;;;;10.13;5.72;;;;;;;18.35;85.72;100582.59;5029544;28;20523;-72
2023/09/21 02:44:55;;;;;;;8.80;6.18;;;;;;;18.32;86.65;100573.00;5029726;28;20113;-70
2023/09/21 02:47:21;;;;;;;8.33;5.60;;;;;;;18.39;88.05;100587.88;5032100;28;20506;-71
2023/09/21 02:49:47;;;;;;;12.05;6.65;;;;;;;18.12;89.39;100585.94;5036418;28;20033;-71
2023/09/21 02:52:13;;;;;;;9.63;5.90;;;;;;;18.04;90.79;100591.06;5036456;28;20029;-72
2023/09/21 02:54:38;;;;;;;11.57;5.78;;;;;;;17.91;91.41;100568.31;5036346;28;20068;-70
2023/09/21 02:57:05;;;;;;;8.07;5.50;;;;;;;17.99;91.39;100587.53;5036708;28;20088;-74
2023/09/21 02:59:31;;;;;;;8.35;5.70;;;;;;;17.92;90.63;100581.38;5036663;28;20037;-70
2023/09/21 03:01:56;;;;;;;6.90;5.78;;;;;;;17.53;90.28;100503.56;5036517;28;20031;-71
2023/09/21 03:04:21;;;;;;;11.25;5.90;;;;;;;17.56;89.80;100496.63;5036210;28;20151;-71
2023/09/21 03:06:47;;;;;;;9.15;5.65;;;;;;;17.92;90.65;100578.75;5036063;28;20029;-71
2023/09/21 03:09:14;;;;;;;9.27;5.80;;;;;;;17.99;90.79;100578.84;5036128;28;20498;-71
2023/09/21 03:11:39;;;;;;;9.40;5.60;;;;;;;17.86;90.51;100541.28;5036247;28;20103;-71
2023/09/21 03:14:05;;;;;;;13.38;6.45;;;;;;;18.23;90.04;100579.03;5036515;28;20025;-71
2023/09/21 03:16:30;;;;;;;10.88;6.50;;;;;;;18.25;89.66;100560.75;5036125;28;20481;-71
2023/09/21 03:18:57;;;;;;;12.65;6.63;;;;;;;18.38;89.62;100559.97;5036729;28;20037;-71
2023/09/21 03:21:24;;;;;;;11.38;5.75;;;;;;;18.36;89.60;100548.63;5035118;28;20037;-71
2023/09/21 03:23:52;;;;;;;9.15;5.75;;;;;;;18.52;88.52;100549.59;5000991;28;20037;-71
2023/09/21 03:26:19;;;;;;;11.38;5.65;;;;;;;18.70;86.83;100561.00;5035794;28;20500;-71
2023/09/21 03:28:47;;;;;;;8.98;6.03;;;;;;;18.69;85.56;100552.31;5036431;28;20104;-76
2023/09/21 03:31:13;;;;;;;10.23;5.82;;;;;;;18.77;86.18;100560.19;5036084;28;20022;-71
2023/09/21 03:33:38;;;;;;;11.63;5.85;;;;;;;18.75;85.62;100560.19;5036401;28;20477;-72
2023/09/21 03:36:04;;;;;;;10.90;6.40;;;;;;;18.73;86.29;100556.69;5035800;28;20067;-73
2023/09/21 03:38:30;;;;;;;16.08;7.10;;;;;;;18.70;88.83;100561.00;5036176;28;20026;-72
2023/09/21 03:40:56;;;;;;;18.65;8.45;;;;;;;18.72;88.68;100554.06;5035958;28;20107;-71
2023/09/21 03:43:23;;;;;;;13.23;7.65;;;;;;;18.30;89.07;100482.38;5035908;28;20041;-71
2023/09/21 03:45:49;;;;;;;15.95;8.35;;;;;;;18.53;90.00;100559.19;5035945;28;20412;-70
2023/09/21 03:48:15;;;;;;;12.18;8.35;;;;;;;18.25;91.02;100535.47;5035958;28;20033;-70
2023/09/21 03:50:42;;;;;;;20.38;7.88;;;;;;;17.72;91.11;100475.88;5036021;28;20056;-71
2023/09/21 03:53:11;;;;;;;20.38;8.18;;;;;;;18.11;91.17;100545.84;5035921;28;20036;-72
2023/09/21 03:55:38;;;;;;;13.80;7.40;;;;;;;17.95;90.63;100550.06;5033510;28;20045;-70
2023/09/21 03:58:05;;;;;;;13.27;6.60;;;;;;;17.82;90.92;100569.13;5035913;28;20477;-75
2023/09/21 04:03:00;;;;;;;12.32;6.75;;;;;;;17.33;92.78;100561.66;5032475;28;20119;-71
2023/09/21 04:05:29;;;;;;;16.40;6.28;;;;;;;17.45;92.21;100576.59;5030293;28;20400;-70
2023/09/21 04:07:54;;;;;;;15.90;6.75;;;;;;;17.43;92.21;100575.69;5032326;28;20115;-72
2023/09/21 04:10:20;;;;;;;13.30;6.72;;;;;;;17.37;92.39;100583.44;5032792;28;20488;-72
2023/09/21 04:12:46;;;;;;;12.18;6.10;;;;;;;17.14;93.10;100576.25;5032633;28;20075;-70
2023/09/21 04:15:12;;;;;;;13.82;7.22;;;;;;;16.98;94.36;100580.41;5032242;28;20108;-72
2023/09/21 04:17:41;;;;;;;13.93;7.57;;;;;;;17.03;94.24;100576.09;5031999;28;20477;-73
2023/09/21 04:20:11;;;;;;;12.63;7.25;;;;;;;16.93;94.84;100577.72;5032388;28;20061;-73
2023/09/21 04:22:38;;;;;;;13.13;8.90;;;;;;;16.84;95.92;100574.97;5028797;28;20041;-73
2023/09/21 04:25:09;;;;;;;19.77;11.05;;;;;;;16.94;95.09;100578.59;5032377;28;20481;-73
2023/09/21 04:27:39;;;;;;;25.40;13.57;;;;;;;16.98;96.03;100586.50;5032321;28;20397;-72
2023/09/21 04:30:14;;;;;;;23.52;12.50;;;;;;;17.02;95.15;100584.78;5037959;28;20542;-76
2023/09/21 04:32:40;;;;;;;23.52;12.52;;;;;;;17.07;95.05;100590.97;5012340;28;20040;-73
2023/09/21 04:35:06;;;;;;;22.65;12.20;;;;;;;17.09;94.63;100596.19;5012353;28;20486;-71
2023/09/21 04:37:33;;;;;;;22.52;12.43;;;;;;;17.14;94.49;100600.59;5012395;28;20037;-70
2023/09/21 04:39:59;;;;;;;30.65;12.90;;;;;;;17.19;94.76;100603.25;5012372;28;20482;-71
2023/09/21 04:42:28;;;;;;;24.38;13.15;;;;;;;17.20;95.43;100602.41;5012215;28;20415;-75
2023/09/21 04:44:55;;;;;;;23.45;12.93;;;;;;;17.24;95.54;100596.34;5012330;28;20034;-71
2023/09/21 04:47:21;;;;;;;27.40;13.90;;;;;;;16.62;96.32;100483.47;5010597;28;20037;-72
2023/09/21 04:49:48;;;;;;;21.10;12.45;;;;;;;17.44;94.43;100608.75;5011874;28;20021;-71
2023/09/21 04:52:13;;;;;;;19.15;12.40;;;;;;;17.54;93.12;100605.38;5011948;28;20063;-70
2023/09/21 04:54:39;;;;;;;27.98;13.65;;;;;;;17.24;94.12;100557.22;5028751;28;20476;-75
2023/09/21 04:57:27;;;;;;;28.05;15.07;;;;;;;17.61;95.06;100615.03;5031796;28;20041;-71
2023/09/21 04:59:55;;;;;;;27.20;13.95;;;;;;;17.56;95.56;100602.81;5009444;28;20489;-70
2023/09/21 05:02:20;;;;;;;25.25;13.70;;;;;;;17.71;95.14;100610.78;5009650;28;20040;-72
2023/09/21 05:04:46;;;;;;;23.33;13.20;;;;;;;17.79;95.97;100616.06;5009510;28;20534;-70
2023/09/21 05:07:13;;;;;;;21.42;12.73;;;;;;;17.68;96.51;100610.72;5007914;28;20124;-72
2023/09/21 05:09:40;;;;;;;19.58;10.82;;;;;;;17.43;96.27;100552.19;5009333;28;20049;-71
2023/09/21 05:12:06;;;;;;;20.35;10.60;;;;;;;17.68;95.38;100557.66;5008325;28;20108;-74
2023/09/21 05:14:32;;;;;;;18.25;9.07;;;;;;;18.14;95.83;100612.06;5009058;28;20117;-72
2023/09/21 05:16:58;;;;;;;17.48;9.65;;;;;;;18.15;95.70;100588.56;5009227;28;20038;-73
2023/09/21 05:19:26;;;;;;;13.68;8.98;;;;;;;18.33;95.82;100607.84;5009474;28;20487;-70
2023/09/21 05:21:56;;;;;;;15.48;9.05;;;;;;;18.47;96.26;100615.78;5009349;28;20528;-72
2023/09/21 05:24:22;;;;;;;12.88;7.57;;;;;;;18.23;96.17;100567.69;5009333;28;20394;-72
2023/09/21 05:26:47;;;;;;;14.93;8.30;;;;;;;18.47;95.52;100608.81;4992441;28;20042;-72
2023/09/21 05:29:13;;;;;;;13.57;6.97;;;;;;;18.49;94.50;100616.66;5008944;28;20048;-71
2023/09/21 05:31:38;;;;;;;13.45;7.15;;;;;;;18.07;93.70;100540.63;5011144;28;20072;-71
2023/09/21 05:34:04;;;;;;;13.45;8.15;;;;;;;18.61;92.87;100610.66;4992956;28;20049;-71
2023/09/21 05:36:30;;;;;;;17.35;7.93;;;;;;;18.70;93.72;100606.34;5011341;28;20508;-72
2023/09/21 05:38:55;;;;;;;18.50;7.82;;;;;;;18.81;93.88;100619.47;5010452;28;20029;-71
2023/09/21 05:41:21;;;;;;;14.63;8.00;;;;;;;18.91;93.60;100617.81;5011366;28;20562;-73
2023/09/21 05:43:47;;;;;;;15.85;8.35;;;;;;;18.82;93.46;100604.69;5011009;28;20049;-70
2023/09/21 05:46:12;;;;;;;18.00;8.18;;;;;;;18.99;93.47;100620.47;5011188;28;20118;-71
2023/09/21 05:48:38;;;;;;;15.32;7.85;;;;;;;18.88;93.60;100618.66;5008946;28;20414;-71
2023/09/21 05:51:06;;;;;;;14.10;8.45;;;;;;;18.87;94.47;100627.38;5011303;28;20076;-75
2023/09/21 05:53:31;;;;;;;21.13;8.80;;;;;;;18.97;94.41;100632.69;5011230;28;20033;-71
2023/09/21 05:55:57;;;;;;;15.25;8.50;;;;;;;18.84;94.23;100618.63;5011156;28;20030;-72
2023/09/21 05:58:23;;;;;;;21.58;10.35;;;;;;;18.65;95.06;100625.50;5009546;28;20034;-71
2023/09/21 06:00:49;;;;;;;28.80;11.63;;;;;;;18.54;96.39;100642.00;5010970;28;20022;-77
2023/09/21 06:03:15;;;;;;;30.65;18.23;;;;;;;18.38;96.67;100638.41;5011045;28;20041;-75
2023/09/21 06:06:00;;;;;;;36.90;20.63;;;;;;;18.48;95.82;100634.13;5010975;28;20026;-71
2023/09/21 06:08:25;;;;;;;30.20;18.98;;;;;;;18.61;95.21;100642.03;5008215;28;20045;-71
2023/09/21 06:10:52;;;;;;;34.00;21.10;;;;;;;18.75;94.55;100648.22;5008164;28;20050;-71
2023/09/21 06:13:18;;;;;;;43.03;27.35;;;;;;;18.72;95.41;100633.38;5008218;28;20041;-70
2023/09/21 06:15:46;;;;;;;42.13;24.40;;;;;;;18.57;94.96;100618.47;5008262;28;20032;-71
2023/09/21 06:18:12;;;;;;;24.27;15.20;;;;;;;18.59;95.89;100631.53;5024853;28;20037;-71
2023/09/21 06:20:38;;;;;;;15.82;10.23;;;;;;;18.55;96.28;100632.41;5027929;28;20112;-70
2023/09/21 06:23:06;;;;;;;16.73;9.38;;;;;;;18.58;96.01;100621.97;5027234;28;20037;-71
2023/09/21 06:25:32;;;;;;;15.35;8.85;;;;;;;18.75;95.65;100603.75;5027683;28;20116;-74
2023/09/21 06:27:57;;;;;;;16.25;8.63;;;;;;;19.11;94.37;100615.28;5027780;28;20037;-72
2023/09/21 06:30:23;;;;;;;13.95;8.65;;;;;;;19.01;93.05;100569.91;5027902;28;20499;-70
2023/09/21 06:32:49;;;;;;;14.73;9.10;;;;;;;19.36;93.83;100600.53;4994753;28;20061;-71
2023/09/21 06:35:14;;;;;;;21.42;9.43;;;;;;;19.39;92.91;100602.31;5027404;28;20030;-71
2023/09/21 06:37:40;;;;;;;15.15;8.32;;;;;;;19.54;92.41;100614.56;5027225;28;20038;-71
2023/09/21 06:40:06;;;;;;;11.18;6.93;;;;;;;19.61;93.04;100610.22;5029360;28;20041;-72
2023/09/21 06:42:32;;;;;;;13.35;8.02;;;;;;;19.76;91.81;100615.47;5029995;28;20408;-71
2023/09/21 06:44:57;;;;;;;18.13;8.07;;;;;;;19.85;92.28;100602.44;5029980;28;20037;-72
2023/09/21 06:47:26;;;;;;;15.48;7.75;;;;;;;20.01;90.63;100618.16;5030356;28;20021;-71
2023/09/21 06:49:54;;;;;;;11.38;7.40;;;;;;;20.11;92.68;100614.69;5030237;28;20393;-72
2023/09/21 06:52:21;;;;;;;18.48;10.93;;;;;;;19.98;92.21;100608.53;5011340;28;20034;-72
2023/09/21 06:54:47;;;;;;;14.43;8.43;;;;;;;20.22;91.29;100616.41;5030106;28;20044;-72
2023/09/21 06:57:13;;;;;;;11.55;7.13;;;;;;;19.91;92.27;100562.25;5030322;28;20126;-74
2023/09/21 06:59:39;;;;;;;10.73;6.10;;;;;;;20.10;91.56;100612.91;5030326;28;20120;-72
2023/09/21 07:02:04;;;;;;;11.13;6.13;;;;;;;20.32;91.59;100626.00;5029989;28;20033;-75
2023/09/21 07:04:33;;;;;;;11.30;8.05;;;;;;;20.65;89.31;100626.84;5029665;28;20026;-70
2023/09/21 07:07:05;;;;;;;13.40;7.10;;;;;;;20.77;88.93;100611.13;5027302;28;20041;-71
2023/09/21 07:09:37;;;;;;;15.50;8.77;;;;;;;21.03;88.16;100628.50;5029588;28;20547;-71
2023/09/21 07:12:03;;;;;;;13.93;8.52;;;;;;;21.10;89.01;100638.09;5030307;28;20461;-72
2023/09/21 07:14:30;;;;;;;16.13;9.80;;;;;;;20.96;87.54;100632.03;5029074;28;20029;-73
2023/09/21 07:16:56;;;;;;;9.45;6.15;;;;;;;21.17;87.10;100633.69;5030084;28;20032;-70
2023/09/21 07:19:22;;;;;;;8.73;4.38;;;;;;;21.28;86.07;100644.16;5029511;28;20107;-72
2023/09/21 07:21:47;;;;;;;10.77;6.38;;;;;;;21.40;85.42;100632.75;5030188;28;20457;-71
2023/09/21 07:24:13;;;;;;;10.32;4.72;;;;;;;21.58;84.71;100630.03;5029796;28;20021;-72
2023/09/21 07:26:38;;;;;;;5.07;3.83;;;;;;;21.79;83.89;100629.03;5029829;28;20037;-71
2023/09/21 07:29:07;;;;;;;8.00;3.83;;;;;;;22.05;82.04;100625.31;5029379;28;20121;-71
2023/09/21 07:31:33;;;;;;;11.85;4.18;;;;;;;22.11;82.21;100627.91;5029568;28;20029;-72
2023/09/21 07:34:02;;;;;;;7.45;4.70;;;;;;;21.94;81.67;100620.16;5029877;28;20131;-72
2023/09/21 07:36:28;;;;;;;7.45;3.70;;;;;;;21.65;80.73;100537.13;5033590;28;20047;-72
2023/09/21 07:38:55;;;;;;;8.60;4.13;;;;;;;22.24;80.21;100615.53;5033481;28;20091;-70
2023/09/21 07:41:21;;;;;;;5.68;3.35;;;;;;;22.41;79.53;100615.38;5033232;28;20041;-72
2023/09/21 07:43:48;;;;;;;7.25;4.43;;;;;;;22.35;79.34;100614.56;5033290;28;20025;-70
2023/09/21 07:46:14;;;;;;;8.73;3.70;;;;;;;22.50;78.84;100618.81;5033389;28;20026;-71
2023/09/21 07:48:41;;;;;;;9.60;4.20;;;;;;;22.68;77.95;100613.38;5046707;28;20116;-72
2023/09/21 07:51:08;;;;;;;7.90;3.50;;;;;;;22.78;76.81;100615.00;5030891;28;20053;-75
2023/09/21 07:53:35;;;;;;;6.60;3.72;;;;;;;22.82;77.84;100618.47;5032933;28;20472;-71
2023/09/21 07:56:08;;;;;;;5.65;3.65;;;;;;;23.04;76.03;100623.47;5048424;28;20416;-69
2023/09/21 07:58:33;;;;;;;5.57;3.85;;;;;;;23.18;74.84;100615.44;5033052;28;20034;-71
2023/09/21 08:01:00;;;;;;;8.27;4.03;;;;;;;23.17;74.72;100622.47;5032894;28;20079;-71
2023/09/21 08:03:26;;;;;;;7.20;4.00;;;;;;;23.28;74.00;100614.44;5032919;28;20045;-71
2023/09/21 08:05:54;;;;;;;7.38;4.07;;;;;;;23.15;76.08;100618.09;5032972;28;20493;-77
2023/09/21 08:08:20;;;;;;;9.25;4.40;;;;;;;23.17;76.14;100611.94;5032884;28;20030;-71
2023/09/21 08:10:47;;;;;;;5.68;4.07;;;;;;;23.40;74.92;100618.66;5032907;28;20029;-71
2023/09/21 08:13:12;;;;;;;10.75;4.68;;;;;;;23.43;74.86;100611.59;5032964;28;20033;-72
2023/09/21 08:15:38;;;;;;;8.15;4.53;;;;;;;23.33;74.23;100594.19;5032785;28;20029;-71
2023/09/21 08:18:07;;;;;;;7.28;4.10;;;;;;;23.43;75.11;100601.06;5032472;28;20041;-73
2023/09/21 08:20:32;;;;;;;9.93;4.22;;;;;;;23.48;74.51;100601.00;5032848;28;20032;-73
2023/09/21 08:22:58;;;;;;;5.45;3.97;;;;;;;23.33;72.42;100543.22;5032602;28;20042;-70
2023/09/21 08:25:23;;;;;;;7.80;3.97;;;;;;;23.80;72.21;100609.28;5032261;28;20033;-71
2023/09/21 08:27:49;;;;;;;6.38;4.10;;;;;;;24.01;71.28;100611.66;5032496;28;20029;-71
2023/09/21 08:30:15;;;;;;;16.85;9.40;;;;;;;24.19;71.05;100606.94;5032322;28;20033;-73
2023/09/21 08:32:41;;;;;;;12.00;6.50;;;;;;;24.29;71.81;100583.88;5025514;28;20045;-72
2023/09/21 08:35:07;;;;;;;6.82;4.90;;;;;;;24.62;70.47;100592.94;5012720;28;20030;-76
2023/09/21 08:37:33;;;;;;;6.07;4.28;;;;;;;24.78;69.20;100590.91;5012483;28;20111;-71
2023/09/21 08:39:58;;;;;;;93.40;61.13;;;;;;;24.73;69.33;100599.84;5012635;28;20057;-71
2023/09/21 08:42:25;;;;;;;7.72;4.53;;;;;;;24.67;66.66;100587.63;5012429;28;20523;-71
2023/09/21 08:44:51;;;;;;;7.03;3.72;;;;;;;24.71;64.34;100570.81;5012133;28;20034;-71
2023/09/21 08:47:19;;;;;;;7.85;4.13;;;;;;;24.77;63.80;100564.53;5012171;28;20396;-71
2023/09/21 08:49:47;;;;;;;6.57;3.83;;;;;;;24.90;62.17;100573.97;5009900;28;20920;-71
2023/09/21 08:52:13;;;;;;;5.90;3.67;;;;;;;24.53;64.63;100503.41;5012724;28;20164;-72
2023/09/21 08:54:40;;;;;;;7.68;4.15;;;;;;;24.99;66.85;100564.97;5012430;28;20026;-71
2023/09/21 08:57:09;;;;;;;8.93;4.90;;;;;;;25.18;69.20;100562.78;5012168;28;20022;-70
2023/09/21 08:59:39;;;;;;;8.20;3.97;;;;;;;25.40;64.40;100570.28;5012152;28;20030;-70
2023/09/21 09:02:08;;;;;;;8.05;3.90;;;;;;;25.48;63.69;100566.56;5011822;28;20064;-76
2023/09/21 09:04:33;;;;;;;8.23;4.57;;;;;;;25.45;62.50;100563.09;5012224;28;20116;-71
2023/09/21 09:07:00;;;;;;;7.10;3.47;;;;;;;25.53;60.00;100563.78;5011238;28;20046;-72
2023/09/21 09:09:26;;;;;;;8.90;3.90;;;;;;;25.22;59.01;100498.38;5012076;28;20037;-71
2023/09/21 09:11:51;;;;;;;7.60;3.97;;;;;;;25.51;59.78;100516.25;5012071;28;20045;-71
2023/09/21 09:14:18;;;;;;;12.57;3.95;;;;;;;25.74;59.40;100561.53;5011874;28;20025;-74
2023/09/21 09:16:44;;;;;;;9.90;4.40;;;;;;;25.78;58.15;100553.50;5011619;28;20033;-71
2023/09/21 09:19:13;;;;;;;6.88;3.78;;;;;;;25.72;57.38;100544.81;5011900;28;20124;-72
2023/09/21 09:21:41;;;;;;;6.82;3.38;;;;;;;25.95;57.12;100555.69;5011849;28;20058;-76
2023/09/21 09:24:08;;;;;;;6.57;3.45;;;;;;;26.11;57.36;100550.91;5011616;28;20033;-75
2023/09/21 09:26:35;;;;;;;9.23;4.05;;;;;;;25.93;57.87;100516.97;5011112;28;20076;-71
2023/09/21 09:29:09;;;;;;;7.88;3.30;;;;;;;26.04;57.06;100498.16;5011694;28;20064;-72
2023/09/21 09:31:37;;;;;;;6.13;3.25;;;;;;;26.11;57.77;100489.19;5011859;28;20041;-71
2023/09/21 09:34:04;;;;;;;6.60;3.70;;;;;;;26.48;56.00;100519.91;5011464;28;20036;-70
2023/09/21 09:36:34;;;;;;;6.15;3.60;;;;;;;26.82;55.81;100545.47;5008372;28;20058;-71
2023/09/21 09:39:00;;;;;;;10.15;3.35;;;;;;;26.56;55.46;100467.63;5011637;28;20687;-73
2023/09/21 09:41:31;;;;;;;4.78;2.95;;;;;;;27.15;53.87;100525.94;5011382;28;20022;-71
2023/09/21 09:43:59;;;;;;;5.13;2.85;;;;;;;27.29;52.71;100527.25;5011403;28;20053;-71
2023/09/21 09:46:26;;;;;;;8.82;3.75;;;;;;;27.09;52.81;100471.34;5011197;28;20032;-70
2023/09/21 09:48:58;;;;;;;5.35;2.92;;;;;;;27.57;51.79;100529.00;5011127;28;20076;-71
2023/09/21 09:51:30;;;;;;;6.53;3.08;;;;;;;27.69;53.54;100525.09;5010903;28;20037;-70
2023/09/21 09:53:59;;;;;;;5.45;2.95;;;;;;;27.80;51.53;100526.50;5011301;28;20041;-73
2023/09/21 09:56:25;;;;;;;7.43;3.28;;;;;;;27.77;50.86;100522.19;5011021;28;20026;-73
2023/09/21 09:58:52;;;;;;;9.40;5.32;;;;;;;27.75;54.08;100516.94;5010818;28;20026;-72
2023/09/21 10:01:22;;;;;;;7.03;3.60;;;;;;;27.71;50.37;100511.78;5011366;28;20037;-72
2023/09/21 10:03:50;;;;;;;8.30;3.20;;;;;;;27.74;51.80;100514.34;5011087;28;20060;-71
2023/09/21 10:06:17;;;;;;;4.13;3.05;;;;;;;27.82;49.57;100504.31;5010867;28;20061;-71
2023/09/21 10:08:43;;;;;;;8.48;3.78;;;;;;;28.14;49.06;100506.78;5011083;28;20029;-70
2023/09/21 10:11:13;;;;;;;6.63;3.22;;;;;;;28.17;49.09;100507.53;5011157;28;20068;-71
2023/09/21 10:13:56;;;;;;;6.13;3.13;;;;;;;27.85;48.47;100498.91;5008666;28;20038;-72
2023/09/21 10:16:24;;;;;;;5.57;3.40;;;;;;;27.79;49.13;100503.56;5010960;28;20031;-70
2023/09/21 10:18:57;;;;;;;5.43;3.20;;;;;;;27.83;48.99;100497.25;5025032;28;20046;-71
2023/09/21 10:21:31;;;;;;;6.78;3.50;;;;;;;27.69;49.47;100479.13;5010785;28;20374;-71
2023/09/21 10:24:06;;;;;;;6.40;3.03;;;;;;;27.84;48.69;100494.53;5011378;28;20036;-71
2023/09/21 10:26:43;;;;;;;6.60;3.55;;;;;;;27.72;49.89;100487.00;5010780;28;20037;-71
2023/09/21 10:29:12;;;;;;;6.13;3.17;;;;;;;27.86;49.59;100484.72;5010248;28;20029;-71
2023/09/21 10:31:56;;;;;;;6.68;3.40;;;;;;;27.67;50.00;100420.84;5028261;28;20079;-75
2023/09/21 10:34:24;;;;;;;9.40;3.15;;;;;;;28.00;49.08;100473.63;5010611;28;20099;-71
2023/09/21 10:37:10;;;;;;;6.80;3.27;;;;;;;28.23;47.92;100464.84;5013404;28;20079;-73
2023/09/21 10:39:39;;;;;;;12.50;3.70;;;;;;;28.40;47.17;100450.09;5028442;28;20037;-71
2023/09/21 10:42:05;;;;;;;;;;;;;;;28.56;47.00;100455.69;5030176;28;20049;-74
2023/09/21 10:45:07;;;;;;;4.28;2.80;;;;;;;28.80;45.66;100455.69;5024793;28;19967;-73
2023/09/21 10:47:51;;;;;;;8.50;3.30;;;;;;;28.49;45.29;100385.16;5026771;28;20029;-71
2023/09/21 10:50:19;;;;;;;7.93;3.20;;;;;;;28.98;45.26;100451.44;5030242;28;20041;-75
2023/09/21 10:52:55;;;;;;;9.27;3.22;;;;;;;29.03;45.26;100436.16;5029772;28;20064;-74
2023/09/21 10:55:21;;;;;;;9.30;3.08;;;;;;;28.89;45.67;100434.94;5029647;28;20026;-74
2023/09/21 10:57:48;;;;;;;9.27;3.05;;;;;;;28.88;49.66;100433.19;5029736;28;20397;-71
2023/09/21 11:00:21;;;;;;;6.53;3.35;;;;;;;28.83;47.73;100427.19;5029087;28;20030;-70
2023/09/21 11:02:49;;;;;;;7.78;3.20;;;;;;;28.98;46.86;100424.88;5027030;28;20026;-73
2023/09/21 11:05:18;;;;;;;9.50;3.05;;;;;;;28.99;45.48;100402.69;5028617;28;20033;-74
2023/09/21 11:07:47;;;;;;;6.45;3.22;;;;;;;29.15;44.83;100409.09;5029866;28;20099;-71
2023/09/21 11:10:14;;;;;;;4.75;2.67;;;;;;;29.26;44.20;100407.75;5014779;28;20041;-72
2023/09/21 11:12:40;;;;;;;4.38;2.80;;;;;;;29.32;45.14;100410.19;5031809;28;20464;-73
2023/09/21 11:15:12;;;;;;;6.43;3.20;;;;;;;29.50;44.22;100408.56;5033765;28;20116;-74
2023/09/21 11:17:40;;;;;;;6.97;3.08;;;;;;;29.30;43.45;100366.88;5024881;28;20102;-73
2023/09/21 11:20:06;;;;;;;5.05;3.30;;;;;;;29.70;47.64;100394.38;5032620;28;20543;-74
2023/09/21 11:22:33;;;;;;;7.13;3.35;;;;;;;29.89;43.61;100401.56;5010729;28;20530;-72
2023/09/21 11:24:59;;;;;;;9.70;3.80;;;;;;;29.67;43.37;100365.25;5011035;28;20045;-71
2023/09/21 11:27:30;;;;;;;8.07;3.17;;;;;;;30.10;42.73;100399.75;5010521;28;20476;-77